Caplen, Texas
Current Conditions -  °F | °C
As of 5:35 AM on Tuesday 21 Oct 2014 (Local Time) from KXIH Reporting Station
Clear Clear  
Wind Chill: 73°   Ceiling: Unl
Heat Index: 73°   Visibility: 10mi
Dew Point: 61°   Wind: 17mph
Humidity: 65%   Direction: 80°E
Pressure: 29.99"   Gusts: NA
Location:  29.4994°N, 94.5234°W
Report Text: KXIH 211035Z AUTO 08015KT 10SM CLR 23/16 A2999 RMK A01
Loading
Personal Weather Stations






























Interactive Weather Map
Tropical Storm Tracking
New forecast layout! Learn more

10-Day Weather Forecast

Advertisements
Track Severe Weather on mobile